Route Details

Aircraft Information
Group: North America Fleet
Types: B738, B752, B762, B763
Route Data
Distance: 1455nm
Duration: 4h 25m
Origin METAR: KRFD 010554Z 18003KT 10SM CLR M19/M22 A3036 RMK AO2 SLP298 4/007 T11891222 11150 21189 411281239 58004
Dest. METAR: KPDX 010553Z 12007KT 10SM FEW150 SCT200 OVC250 01/M04 A3019 RMK AO2 SLP222 T00111044 10050 20011 56005
Freight Data
(for Feb 1, 2023)
Load Factor:
38%
Manifested Cargo: 23,745lbs
Financial History
Total Freight: 116,783lbs
Average Load: 0lbs/flt
Fuel Used: 84,110lbs
Avg. Fuel Used: 0lbs/flt
Fuel Expense: $41,101
Avg. Fuel Expense: $0
Avg. Fuel Cost: $0/lbs
Total Gross Income: $221,727
Pilot Pay: $717
Total Expenses: $26,476
Total Revenue: $151,433
Average Revenue: $0

Capitol Logistics 482




KRFD
Chicago/Rockford International Airport
Rockford, Illinois
KPDX
Portland International Airport
Portland, Oregon

Activity Log

Date Flight Route Aircraft Duration
06/07/2021 CPX7400 DBQ MCW DPR J16 KOTAA JKNOX HHOOD4 A30F 3h 47m
09/09/2019 CPX444 DBQ MCW J16 FSD J82 RAP DLN PDT J16 KOTAA JKNOX HHOOD4 B738 4h 00m
08/27/2019 CPX444 COTON J100 DBQ J82 DBS J82 DNJ J20 PDT J16 KOTAA YENTL HHOOD4 B738 4h 16m